createdAt,value
2018-05-13T00:02:37.036Z,94367.36
2018-05-13T00:17:34.861Z,94390.96
2018-05-13T00:32:34.766Z,94390.98
2018-05-13T00:47:34.179Z,94383.38
2018-05-13T01:02:34.176Z,94371.92
2018-05-13T01:17:36.305Z,94367.42
2018-05-13T01:32:34.075Z,94360.63
2018-05-13T01:47:34.442Z,94371.92
2018-05-13T02:02:34.771Z,94351.80
2018-05-13T02:17:34.462Z,94357.98
2018-05-13T02:32:34.531Z,94352.13
2018-05-13T02:47:34.760Z,94354.66
2018-05-13T03:02:36.739Z,94338.10
2018-05-13T03:17:34.823Z,94334.59
2018-05-13T03:32:34.842Z,94332.41
2018-05-13T03:47:34.187Z,94332.26
2018-05-13T04:02:34.156Z,94327.66
2018-05-13T04:17:35.173Z,94343.31
2018-05-13T04:32:35.014Z,94332.06
2018-05-13T04:47:34.461Z,94336.89
2018-05-13T05:02:34.797Z,94335.02
2018-05-13T05:17:36.354Z,94328.75
2018-05-13T05:32:34.461Z,94333.72
2018-05-13T05:47:34.976Z,94340.88
2018-05-13T06:02:34.930Z,94341.09
2018-05-13T06:17:37.568Z,94333.78
2018-05-13T06:32:34.550Z,94323.50
2018-05-13T06:47:34.901Z,94327.01
2018-05-13T07:02:35.177Z,94315.27
2018-05-13T07:17:37.078Z,94305.29
2018-05-13T07:32:35.015Z,94292.06
2018-05-13T07:47:35.898Z,94279.18
2018-05-13T08:02:34.404Z,94254.56
2018-05-13T08:17:34.371Z,94242.95
2018-05-13T08:32:34.445Z,94235.13
2018-05-13T08:47:36.689Z,94215.13
2018-05-13T09:02:37.718Z,94194.13
2018-05-13T09:17:35.870Z,94193.41
2018-05-13T09:20:47.786Z,94188.66
2018-05-13T09:47:36.561Z,94170.47
2018-05-13T10:02:35.128Z,94165.35
2018-05-13T10:17:35.044Z,94140.54
2018-05-13T10:32:34.954Z,94117.53
2018-05-13T10:47:34.446Z,94093.50
2018-05-13T11:02:34.414Z,94117.36
2018-05-13T11:17:34.082Z,94102.25
2018-05-13T11:32:34.390Z,94083.24
2018-05-13T11:47:34.781Z,94134.80
2018-05-13T12:02:34.738Z,94221.13
2018-05-13T12:17:34.610Z,94203.45
2018-05-13T12:32:34.593Z,94184.82
2018-05-13T12:47:34.928Z,94130.73
2018-05-13T13:02:36.048Z,94100.31
2018-05-13T13:17:37.354Z,94086.75
2018-05-13T13:32:34.655Z,94074.75
2018-05-13T13:47:34.303Z,94064.61
2018-05-13T14:02:34.047Z,94071.48
2018-05-13T14:17:36.040Z,94081.30
2018-05-13T14:32:35.079Z,94075.53
2018-05-13T14:47:34.399Z,94056.30
2018-05-13T15:02:36.314Z,94055.03
2018-05-13T15:17:34.348Z,94058.87
2018-05-13T15:32:34.402Z,94049.87
2018-05-13T15:47:34.122Z,94051.80
2018-05-13T16:02:34.871Z,94067.10
2018-05-13T16:17:36.708Z,94068.75
2018-05-13T16:32:34.570Z,94081.97
2018-05-13T16:47:34.108Z,94088.64
2018-05-13T17:02:35.987Z,94106.45
2018-05-13T17:17:33.666Z,94126.06
2018-05-13T17:32:35.259Z,94177.16
2018-05-13T17:47:34.606Z,94171.56
2018-05-13T18:02:34.382Z,94165.22
2018-05-13T18:17:34.423Z,94202.58
2018-05-13T18:32:34.471Z,94177.81
2018-05-13T18:47:34.846Z,94129.98
2018-05-13T19:02:34.748Z,94142.89
2018-05-13T19:17:34.915Z,94141.98
2018-05-13T19:32:34.885Z,94136.92
2018-05-13T19:47:33.624Z,94137.22
2018-05-13T20:02:34.913Z,94150.38
2018-05-13T20:17:35.198Z,94163.78
2018-05-13T20:32:35.062Z,94144.98
2018-05-13T20:47:34.429Z,94127.10
2018-05-13T21:02:34.420Z,94126.58
2018-05-13T21:17:34.386Z,94139.95
2018-05-13T21:32:34.485Z,94151.66
2018-05-13T21:47:34.763Z,94157.83
2018-05-13T22:02:36.741Z,94154.84
2018-05-13T22:17:34.709Z,94171.08
2018-05-13T22:32:34.799Z,94191.73
2018-05-13T22:47:35.185Z,94187.21
2018-05-13T23:02:35.144Z,94171.50
2018-05-13T23:17:34.769Z,94152.30
2018-05-13T23:32:34.859Z,94141.86
2018-05-13T23:47:34.135Z,94145.23
